메인 페이지
METAR-TAF:

METAR-TAF

공항 :

파나지, 인도

위도: 15-22-51N, 경도: 073-49-53E, 고도: 56m

현재 날씨관측

예보는 7 시간 31분 전, 15:30시(UTC)에 발표되었습니다.
북북서9kt
온도 29°C
습도 70%
기압 1010 hPa
시정: 6000m
고도 1800ft 상공 구름 조금

METAR: VOGO 311530Z 33009KT 6000 FEW018 29/23 Q1010 NOSIG

시각: 04:31 (23:01 UTC)

예보

예보는 8 시간 1분 전, 15:00시(UTC)에 발표되었습니다.
예보 대상 시간: 31일 18시부터 01일 24시까지 (UTC)
북동8kt
시정: 5000m
고도 1600ft 상공 구름 조금
고도 9000ft 상공 구름 보통
박무, 연무
일시적
31일 23시부터 01일 03시까지 (UTC)
시정: 4000m
박무
전환 중
01일 05시부터 01일 07시까지 (UTC)
10kt
시정: 6000m
전환 중
01일 12시부터 01일 14시까지 (UTC)
북서10kt
전환 중
01일 18시부터 01일 20시까지 (UTC)
북동8kt
시정: 5000m
박무, 연무

TAF: VOGO 311500Z 3118/0124 05008KT 5000 BR HZ FEW016 SCT090 TEMPO 3123/0103 4000 BR BECMG 0105/0107 27010KT 6000 BECMG 0112/0114 31010KT BECMG 0118/0120 04008KT 5000 BR HZ

4,000개 이상의 공항 관측 자료 및 예보 (METAR 및 TAF 보고).

지도상에서 검색 가능한 기상관측소가 노란 점과 빨간 점으로 표시되어 있습니다.

기상관측소 명을 보려면 표시 위로 마우스를 이동하세요.

날씨 관측과 예보를 보려면 클릭하세요.

지도 변경 : 확대하려면 엑스 표시가 있는 녹색 버튼, 축소하려면 빼기 표시가 있는 녹색 버튼, 다음 페이지의 지도를 보려면 녹색 화살표를 클릭하세요.


METAR-TAF: